Terminal Aerodrome Forecast
Issued by NWS

Home | Current Version | Previous Version | Text Only | Print | Product List | Glossary On
Versions: 1 2 3 4 5 6 7 8 9 10 11 12 13 14 15 16
000
FTUS41 KBTV 021720
TAFMPV
TAF
KMPV 021720Z 0218/0318 30005KT P6SM SCT250
     FM030600 00000KT 3SM BR SCT250
      TEMPO 0306/0309 1SM BR SCT001
     FM030900 00000KT 3SM BR VCSH BKN025
     FM031500 34005KT P6SM VCSH BKN025=

USA.gov is the U.S. government's official web portal to all federal, state and local government web resources and services.